Data for 02/26/2009

Time Sea-Level Adjusted Pressure Absolute Pressure Temperature Relative Humidity Dew Point   
(mb) (inHg) (mb) (inHg) (C) (F) (%) (C) (F)
00:05 1012 29.88 841 24.83 -4.6 23.7 83 -7.1 19.2
00:10 1012 29.88 841 24.83 -4.6 23.8 83 -7 19.5
00:15 1012 29.88 841 24.83 -4.5 23.9 84 -6.8 19.7
00:20 1012 29.88 841 24.83 -4.4 24.1 86 -6.4 20.4
00:25 1012 29.88 841 24.83 -4.2 24.4 93 -5.2 22.6
00:30 1012 29.88 841 24.83 -4.4 24.1 94 -5.2 22.6
00:35 1012 29.88 842 24.86 -4.4 24 93 -5.5 22.2
00:40 1012 29.88 842 24.86 -4.3 24.3 90 -5.6 21.9
00:45 1012 29.88 842 24.86 -4.8 23.4 94 -5.7 21.8
00:50 1012 29.88 842 24.86 -5 23 95 -5.8 21.6
00:55 1012 29.88 842 24.86 -4.9 23.1 94 -5.7 21.7
01:00 1013 29.91 842 24.86 -4.7 23.5 94 -5.6 22
01:05 1013 29.91 842 24.86 -4.5 24 92 -5.6 22
01:10 1013 29.91 842 24.86 -4.4 24.1 92 -5.5 22.1
01:15 1013 29.91 842 24.86 -4.4 24.1 91 -5.6 21.9
01:20 1013 29.91 842 24.86 -4.5 23.8 85 -6.7 20
01:25 1013 29.91 842 24.86 -4.8 23.4 84 -7.1 19.3
01:30 1013 29.91 842 24.86 -4.9 23.2 84 -7.2 19
01:35 1013 29.91 842 24.86 -5 23 85 -7.2 19
01:40 1012 29.88 842 24.86 -5.1 22.9 85 -7.3 18.9
01:45 1012 29.88 842 24.86 -5.2 22.7 84 -7.4 18.6
01:50 1012 29.88 842 24.86 -5.3 22.5 83 -7.7 18.2
01:55 1012 29.88 842 24.86 -5.5 22 83 -8 17.6
02:00 1012 29.88 842 24.86 -5.7 21.7 84 -8.1 17.5
02:05 1012 29.88 842 24.86 -5.8 21.6 84 -8.1 17.4
02:10 1012 29.88 842 24.86 -5.7 21.7 84 -8.1 17.5
02:15 1012 29.88 842 24.86 -5.7 21.8 84 -8 17.6
02:20 1012 29.88 842 24.86 -5.7 21.7 84 -8 17.6
02:25 1012 29.88 842 24.86 -5.8 21.6 84 -8 17.6
02:30 1012 29.88 841 24.83 -5.8 21.6 84 -8.1 17.4
02:35 1012 29.88 841 24.83 -5.8 21.6 84 -8 17.6
02:40 1012 29.88 841 24.83 -5.8 21.6 86 -7.8 17.9
02:45 1012 29.88 841 24.83 -5.9 21.4 89 -7.4 18.7
02:50 1012 29.88 841 24.83 -6 21.2 91 -7.3 18.9
02:55 1012 29.88 841 24.83 -6.1 21.1 88 -7.7 18.1
03:00 1012 29.88 841 24.83 -6.1 21.1 89 -7.6 18.3
03:05 1012 29.88 841 24.83 -6.1 21.1 88 -7.7 18.1
03:10 1012 29.88 841 24.83 -6.1 21.1 88 -7.7 18.1
03:15 1012 29.88 841 24.83 -6.1 21.1 88 -7.7 18.2
03:20 1012 29.88 841 24.83 -6 21.2 88 -7.7 18.1
03:25 1011 29.85 841 24.83 -5.9 21.3 86 -7.9 17.8
03:30 1012 29.88 841 24.83 -5.9 21.3 86 -7.9 17.8
03:35 1012 29.88 841 24.83 -6 21.3 86 -7.9 17.7
03:40 1012 29.88 841 24.83 -6 21.1 89 -7.6 18.3
03:45 1011 29.85 841 24.83 -6.2 20.8 95 -7 19.4
03:50 1011 29.85 841 24.83 -6.4 20.4 96 -7 19.4
03:55 1011 29.85 841 24.83 -6.5 20.4 96 -7 19.4
04:00 1011 29.85 841 24.83 -6.4 20.6 96 -6.9 19.5
04:05 1011 29.85 841 24.83 -6.6 20.2 98 -6.9 19.6
04:10 1011 29.85 841 24.83 -6.4 20.4 97 -6.8 19.7
04:15 1011 29.85 841 24.83 -6.4 20.4 96 -6.9 19.6
04:20 1011 29.85 841 24.83 -6.5 20.2 96 -7 19.4
04:25 1012 29.88 841 24.83 -6.6 20.2 96 -7.1 19.2
04:30 1012 29.88 841 24.83 -6.6 20.1 96 -7.2 19.1
04:35 1012 29.88 841 24.83 -6.7 19.9 96 -7.2 19
04:40 1012 29.88 841 24.83 -6.7 19.9 95 -7.4 18.7
04:45 1012 29.88 841 24.83 -6.9 19.6 96 -7.5 18.5
04:50 1012 29.88 841 24.83 -7 19.4 96 -7.6 18.4
04:55 1011 29.85 841 24.83 -7.1 19.2 95 -7.7 18.1
05:00 1011 29.85 841 24.83 -7.2 19 96 -7.7 18.1
05:05 1011 29.85 840 24.81 -7.2 19 96 -7.8 18
05:10 1011 29.85 840 24.81 -7.2 19.1 95 -7.8 18
05:15 1011 29.85 840 24.81 -7.3 18.9 96 -7.8 17.9
05:20 1011 29.85 840 24.81 -7.3 18.9 95 -8 17.7
05:25 1011 29.85 840 24.81 -7.4 18.8 92 -8.4 16.8
05:30 1011 29.85 840 24.81 -7.4 18.6 89 -8.9 15.9
05:35 1011 29.85 840 24.81 -7.4 18.7 86 -9.4 15.1
05:40 1011 29.85 840 24.81 -7.4 18.7 85 -9.5 14.9
05:45 1011 29.85 840 24.81 -7.5 18.6 85 -9.6 14.7
05:50 1011 29.85 840 24.81 -7.4 18.6 85 -9.6 14.7
05:55 1011 29.85 840 24.81 -7.5 18.6 85 -9.6 14.8
06:00 1011 29.85 840 24.81 -7.6 18.4 91 -8.8 16.1
06:05 1010 29.83 840 24.81 -7.8 18 94 -8.6 16.5
06:10 1010 29.83 840 24.81 -7.8 17.9 95 -8.5 16.8
06:15 1010 29.83 840 24.81 -7.9 17.8 96 -8.5 16.7
06:20 1010 29.83 839 24.78 -7.9 17.8 92 -9 15.8
06:25 1010 29.83 839 24.78 -7.7 18.2 85 -9.8 14.4
06:30 1010 29.83 839 24.78 -7.5 18.6 83 -9.9 14.3
06:35 1010 29.83 839 24.78 -7.3 18.9 82 -9.8 14.3
06:40 1010 29.83 839 24.78 -7.2 19 82 -9.8 14.4
06:45 1010 29.83 839 24.78 -7.3 18.9 82 -9.8 14.3
06:50 1010 29.83 839 24.78 -7.2 19 84 -9.4 15
06:55 1010 29.83 839 24.78 -7.3 18.9 89 -8.7 16.3
07:00 1010 29.83 839 24.78 -7.6 18.3 95 -8.3 17
07:05 1010 29.83 839 24.78 -7.6 18.2 95 -8.4 17
07:10 1010 29.83 839 24.78 -7.6 18.2 95 -8.3 17.1
07:15 1010 29.83 839 24.78 -7.8 18 96 -8.3 17.1
07:20 1010 29.83 839 24.78 -7.8 17.9 97 -8.2 17.2
07:25 1010 29.83 839 24.78 -7.6 18.3 96 -8.1 17.5
07:30 1010 29.83 839 24.78 -7.6 18.4 96 -8.1 17.5
07:35 1010 29.83 839 24.78 -7.7 18.2 96 -8.2 17.3
07:40 1010 29.83 839 24.78 -7.5 18.5 96 -8 17.6
07:45 1010 29.83 839 24.78 -7.4 18.6 96 -7.9 17.7
07:50 1010 29.83 839 24.78 -7.2 19.1 95 -7.9 17.9
07:55 1010 29.83 839 24.78 -7 19.4 94 -7.8 17.9
08:00 1010 29.83 839 24.78 -6.9 19.6 94 -7.8 18
08:05 1010 29.83 839 24.78 -7.1 19.2 95 -7.8 17.9
08:10 1010 29.83 839 24.78 -7.1 19.2 94 -7.9 17.7
08:15 1010 29.83 839 24.78 -7.4 18.6 96 -8 17.7
08:20 1010 29.83 839 24.78 -7.6 18.3 96 -8.1 17.4
08:25 1010 29.83 839 24.78 -7.8 18 97 -8.2 17.3
08:30 1010 29.83 839 24.78 -7.7 18.1 97 -8.2 17.3
08:35 1010 29.83 839 24.78 -7.5 18.4 97 -8 17.6
08:40 1010 29.83 839 24.78 -7.4 18.7 95 -8 17.6
08:45 1009 29.8 839 24.78 -7.3 18.8 93 -8.3 17.1
08:50 1009 29.8 838 24.75 -7.2 19.1 86 -9.2 15.5
08:55 1009 29.8 838 24.75 -6.9 19.5 81 -9.6 14.7
09:00 1009 29.8 838 24.75 -6.7 20 80 -9.6 14.6
09:05 1009 29.8 838 24.75 -6.4 20.5 78 -9.7 14.6
09:10 1009 29.8 838 24.75 -6.1 21.1 77 -9.5 14.9
09:15 1009 29.8 838 24.75 -5.8 21.5 77 -9.2 15.4
09:20 1009 29.8 838 24.75 -5.5 22.1 79 -8.7 16.4
09:25 1009 29.8 838 24.75 -5 23 80 -8 17.6
09:30 1009 29.8 838 24.75 -5.5 22.1 87 -7.3 18.9
09:35 1009 29.8 838 24.75 -5.9 21.4 87 -7.8 18
09:40 1009 29.8 838 24.75 -5.8 21.7 89 -7.3 18.8
09:45 1009 29.8 838 24.75 -5.8 21.5 87 -7.6 18.3
09:50 1009 29.8 838 24.75 -5.7 21.7 88 -7.4 18.8
09:55 1009 29.8 838 24.75 -5 23.1 85 -7.1 19.2
10:00 1008 29.77 838 24.75 -4.3 24.2 77 -7.7 18.1
10:05 1008 29.77 838 24.75 -4.3 24.2 81 -7.1 19.3
10:10 1008 29.77 838 24.75 -4 24.9 79 -7.2 19.1
10:15 1008 29.77 838 24.75 -4.3 24.3 85 -6.4 20.4
10:20 1008 29.77 838 24.75 -4.4 24.1 84 -6.7 20
10:25 1008 29.77 838 24.75 -4.3 24.2 82 -7 19.5
10:30 1008 29.77 838 24.75 -4.7 23.5 86 -6.8 19.8
10:35 1008 29.77 838 24.75 -4.3 24.3 82 -6.8 19.7
10:40 1008 29.77 837 24.72 -4.8 23.3 86 -6.9 19.6
10:45 1008 29.77 838 24.75 -5 23 89 -6.6 20.1
10:50 1008 29.77 837 24.72 -5.1 22.7 86 -7.1 19.2
10:55 1008 29.77 837 24.72 -5 23.1 87 -6.8 19.7
11:00 1008 29.77 838 24.75 -5 23 91 -6.3 20.7
11:05 1008 29.77 838 24.75 -5.1 22.8 89 -6.7 19.9
11:10 1008 29.77 837 24.72 -5.1 22.9 87 -6.9 19.6
11:15 1008 29.77 838 24.75 -4.5 23.8 87 -6.3 20.6
11:20 1008 29.77 837 24.72 -4.7 23.5 88 -6.4 20.4
11:25 1008 29.77 837 24.72 -4.3 24.3 87 -6.2 20.9
11:30 1008 29.77 837 24.72 -4.3 24.2 88 -6 21.2
11:35 1008 29.77 837 24.72 -4.3 24.2 86 -6.3 20.6
11:40 1008 29.77 837 24.72 -4.5 23.9 89 -6.1 21
11:45 1008 29.77 837 24.72 -4.3 24.2 89 -5.9 21.3
11:50 1008 29.77 837 24.72 -4.6 23.7 89 -6.2 20.9
11:55 1008 29.77 837 24.72 -4.6 23.8 89 -6.1 21
12:00 1008 29.77 838 24.75 -4.3 24.3 89 -5.9 21.4
12:05 1008 29.77 838 24.75 -4.1 24.7 85 -6.2 20.9
12:10 1008 29.77 838 24.75 -4.3 24.2 89 -5.9 21.5
12:15 1008 29.77 838 24.75 -4.4 24.1 88 -6.1 21.1
12:20 1008 29.77 837 24.72 -4.6 23.6 88 -6.3 20.7
12:25 1008 29.77 837 24.72 -4.7 23.5 82 -7.4 18.7
12:30 1008 29.77 837 24.72 -5.2 22.7 85 -7.4 18.7
12:35 1008 29.77 837 24.72 -5.4 22.3 82 -8 17.6
12:40 1008 29.77 837 24.72 -5.7 21.7 84 -8.1 17.5
12:45 1008 29.77 837 24.72 -6 21.2 84 -8.2 17.2
12:50 1008 29.77 837 24.72 -6.2 20.9 84 -8.4 16.8
12:55 1008 29.77 837 24.72 -6.4 20.5 85 -8.6 16.6
13:00 1007 29.74 837 24.72 -6.5 20.3 85 -8.7 16.3
13:05 1007 29.74 837 24.72 -6.8 19.8 85 -8.9 16
13:10 1007 29.74 837 24.72 -6.7 20 84 -9 15.8
13:15 1007 29.74 836 24.69 -6.7 20 84 -9 15.8
13:20 1007 29.74 836 24.69 -6.4 20.6 82 -8.9 16
13:25 1007 29.74 836 24.69 -6.3 20.7 82 -8.8 16.1
13:30 1007 29.74 836 24.69 -6.2 20.9 81 -8.9 16
13:35 1007 29.74 836 24.69 -6.1 21.1 79 -9.1 15.6
13:40 1007 29.74 836 24.69 -6.1 21.1 81 -8.8 16.1
13:45 1007 29.74 836 24.69 -5.9 21.4 81 -8.6 16.5
13:50 1007 29.74 836 24.69 -5.7 21.7 82 -8.4 17
13:55 1007 29.74 836 24.69 -5.7 21.7 82 -8.2 17.2
14:00 1007 29.74 836 24.69 -5.9 21.3 82 -8.5 16.7
14:05 1007 29.74 836 24.69 -6.2 20.8 81 -9 15.8
14:10 1007 29.74 836 24.69 -6.5 20.3 80 -9.4 15
14:15 1007 29.74 836 24.69 -6.9 19.6 82 -9.5 14.9
14:20 1007 29.74 836 24.69 -7.1 19.1 82 -9.6 14.6
14:25 1007 29.74 836 24.69 -7.4 18.8 83 -9.8 14.4
14:30 1007 29.74 836 24.69 -7.6 18.4 84 -9.8 14.3
14:35 1007 29.74 836 24.69 -7.9 17.8 86 -9.8 14.4
14:40 1007 29.74 836 24.69 -8.1 17.4 87 -9.9 14.2
14:45 1007 29.74 836 24.69 -8.6 16.6 88 -10.2 13.7
14:50 1007 29.74 836 24.69 -8.7 16.3 89 -10.3 13.5
14:55 1007 29.74 837 24.72 -8.6 16.6 88 -10.2 13.7
15:00 1007 29.74 837 24.72 -8.6 16.5 86 -10.5 13.1
15:05 1007 29.74 837 24.72 -8.9 16.1 89 -10.4 13.3
15:10 1008 29.77 837 24.72 -8.9 16 91 -10.2 13.7
15:15 1008 29.77 837 24.72 -8.9 16.1 92 -10 14
15:20 1008 29.77 837 24.72 -8.8 16.1 93 -9.8 14.3
15:25 1008 29.77 837 24.72 -8.7 16.3 94 -9.6 14.8
15:30 1008 29.77 837 24.72 -8.4 16.8 94 -9.2 15.4
15:35 1008 29.77 837 24.72 -8.2 17.2 91 -9.4 15.1
15:40 1008 29.77 837 24.72 -8.7 16.3 92 -9.8 14.4
15:45 1008 29.77 838 24.75 -8.8 16.3 94 -9.6 14.7
15:50 1008 29.77 837 24.72 -8.4 16.9 92 -9.5 15
15:55 1008 29.77 837 24.72 -8.5 16.7 90 -9.8 14.3
16:00 1008 29.77 837 24.72 -8.6 16.4 91 -9.8 14.3
16:05 1008 29.77 837 24.72 -8.7 16.4 90 -10 14
16:10 1008 29.77 838 24.75 -8.7 16.4 90 -10 14
16:15 1008 29.77 838 24.75 -8.6 16.4 90 -10 14
16:20 1008 29.77 838 24.75 -8.6 16.6 88 -10.1 13.7
16:25 1009 29.8 838 24.75 -8.6 16.6 87 -10.4 13.3
16:30 1009 29.8 838 24.75 -9 15.8 89 -10.4 13.2
16:35 1009 29.8 838 24.75 -9.3 15.3 89 -10.8 12.5
16:40 1009 29.8 838 24.75 -9.5 14.9 89 -11 12.3
16:45 1009 29.8 838 24.75 -9.6 14.8 90 -11 12.3
16:50 1009 29.8 838 24.75 -9.5 14.9 90 -10.9 12.3
16:55 1009 29.8 838 24.75 -9.4 15.1 91 -10.7 12.8
17:00 1009 29.8 838 24.75 -9.3 15.3 90 -10.6 12.9
17:05 1009 29.8 838 24.75 -9.2 15.4 90 -10.6 13
17:10 1009 29.8 838 24.75 -9.4 15.2 89 -10.9 12.4
17:15 1009 29.8 838 24.75 -9.6 14.8 90 -10.9 12.4
17:20 1009 29.8 838 24.75 -9.6 14.8 89 -11 12.2
17:25 1009 29.8 838 24.75 -9.9 14.2 88 -11.6 11.2
17:30 1009 29.8 838 24.75 -10.2 13.6 87 -12.1 10.3
17:35 1009 29.8 839 24.78 -10.7 12.8 88 -12.4 9.7
17:40 1010 29.83 839 24.78 -11.1 12 89 -12.6 9.3
17:45 1010 29.83 839 24.78 -11.3 11.6 90 -12.7 9.2
17:50 1010 29.83 839 24.78 -11.2 11.9 91 -12.3 9.8
17:55 1010 29.83 839 24.78 -10.8 12.6 89 -12.3 9.9
18:00 1010 29.83 840 24.81 -10.8 12.5 90 -12.2 10.1
18:05 1010 29.83 840 24.81 -10.8 12.6 91 -12 10.4
18:10 1011 29.85 840 24.81 -10.8 12.6 89 -12.3 9.9
18:15 1011 29.85 840 24.81 -11 12.2 91 -12.3 9.9
18:20 1011 29.85 840 24.81 -10.9 12.5 91 -12.1 10.2
18:25 1011 29.85 840 24.81 -10.6 13 90 -11.9 10.5
18:30 1011 29.85 840 24.81 -10.6 13 89 -12.1 10.3
18:35 1011 29.85 840 24.81 -10.7 12.8 90 -12.1 10.3
18:40 1011 29.85 840 24.81 -10.7 12.8 89 -12.1 10.2
18:45 1011 29.85 840 24.81 -10.7 12.8 89 -12.2 10.1
18:50 1011 29.85 840 24.81 -10.6 12.9 89 -12.1 10.1
18:55 1011 29.85 840 24.81 -10.6 12.9 89 -12.1 10.2
19:00 1011 29.85 840 24.81 -10.7 12.8 89 -12.1 10.2
19:05 1011 29.85 840 24.81 -10.7 12.8 89 -12.2 10
19:10 1011 29.85 840 24.81 -10.8 12.5 89 -12.3 9.9
19:15 1011 29.85 840 24.81 -11 12.3 90 -12.2 10
19:20 1011 29.85 840 24.81 -11 12.2 91 -12.2 10.1
19:25 1011 29.85 840 24.81 -11 12.3 91 -12.1 10.2
19:30 1011 29.85 840 24.81 -10.9 12.4 90 -12.2 10.1
19:35 1011 29.85 840 24.81 -10.9 12.4 91 -12.1 10.2
19:40 1011 29.85 840 24.81 -11 12.1 90 -12.3 9.8
19:45 1011 29.85 840 24.81 -11.2 11.9 90 -12.5 9.5
19:50 1011 29.85 840 24.81 -11.2 11.8 90 -12.5 9.4
19:55 1011 29.85 840 24.81 -11.2 11.8 90 -12.5 9.5
20:00 1011 29.85 840 24.81 -11.2 11.8 90 -12.6 9.4
20:05 1011 29.85 840 24.81 -11.2 11.8 90 -12.6 9.3
20:10 1011 29.85 840 24.81 -11.2 11.9 90 -12.6 9.4
20:15 1011 29.85 840 24.81 -11.1 12 90 -12.5 9.5
20:20 1011 29.85 840 24.81 -11 12.1 90 -12.4 9.7
20:25 1011 29.85 840 24.81 -10.9 12.4 89 -12.4 9.7
20:30 1011 29.85 840 24.81 -10.9 12.3 88 -12.5 9.4
20:35 1011 29.85 840 24.81 -10.9 12.5 89 -12.4 9.7
20:40 1011 29.85 841 24.83 -10.8 12.5 89 -12.3 9.9
20:45 1011 29.85 841 24.83 -10.7 12.8 89 -12.1 10.2
20:50 1012 29.88 841 24.83 -10.6 12.9 89 -12 10.3
20:55 1012 29.88 841 24.83 -10.6 13 90 -11.9 10.6
21:00 1012 29.88 841 24.83 -10.5 13.2 89 -12 10.4
21:05 1012 29.88 841 24.83 -10.3 13.4 90 -11.7 10.9
21:10 1012 29.88 841 24.83 -10.1 13.9 89 -11.6 11.2
21:15 1012 29.88 842 24.86 -10.1 13.9 88 -11.8 10.8
21:20 1013 29.91 842 24.86 -10.6 13 88 -12.3 9.9
21:25 1013 29.91 842 24.86 -11 12.3 88 -12.5 9.5
21:30 1013 29.91 842 24.86 -11 12.2 88 -12.5 9.4
21:35 1013 29.91 842 24.86 -11.2 11.9 88 -12.7 9.1
21:40 1013 29.91 842 24.86 -11.2 11.8 88 -12.9 8.8
21:45 1013 29.91 842 24.86 -11.3 11.6 88 -13 8.7
21:50 1013 29.91 842 24.86 -11.5 11.3 88 -13.1 8.4
21:55 1013 29.91 842 24.86 -11.6 11.1 88 -13.3 8.1
22:00 1013 29.91 842 24.86 -11.8 10.8 88 -13.4 7.9
22:05 1013 29.91 842 24.86 -11.8 10.7 89 -13.3 8
22:10 1013 29.91 843 24.89 -11.8 10.7 89 -13.3 8.1
22:15 1013 29.91 843 24.89 -11.8 10.8 89 -13.2 8.2
22:20 1013 29.91 843 24.89 -11.8 10.8 89 -13.3 8
22:25 1014 29.94 843 24.89 -11.8 10.7 89 -13.3 8
22:30 1014 29.94 843 24.89 -11.9 10.5 88 -13.5 7.7
22:35 1014 29.94 843 24.89 -12.1 10.3 88 -13.6 7.5
22:40 1014 29.94 843 24.89 -12 10.4 89 -13.5 7.7
22:45 1014 29.94 843 24.89 -12 10.5 88 -13.5 7.7
22:50 1014 29.94 843 24.89 -11.9 10.6 89 -13.4 8
22:55 1014 29.94 843 24.89 -11.9 10.7 89 -13.3 8
23:00 1014 29.94 843 24.89 -11.8 10.7 89 -13.3 8
23:05 1014 29.94 843 24.89 -11.9 10.7 89 -13.3 8
23:10 1014 29.94 843 24.89 -11.9 10.7 88 -13.4 7.9
23:15 1014 29.94 843 24.89 -11.8 10.7 89 -13.3 8.1
23:20 1014 29.94 843 24.89 -11.8 10.8 89 -13.2 8.2
23:25 1014 29.94 843 24.89 -11.7 11 89 -13.1 8.4
23:30 1014 29.94 843 24.89 -11.7 11 89 -13.1 8.4
23:35 1014 29.94 843 24.89 -11.7 11 88 -13.3 8.1
23:40 1014 29.94 844 24.92 -11.7 10.9 88 -13.2 8.2
23:45 1014 29.94 844 24.92 -11.8 10.8 89 -13.2 8.2
23:50 1014 29.94 844 24.92 -11.8 10.8 89 -13.2 8.2
23:55 1015 29.97 844 24.92 -11.8 10.8 89 -13.2 8.2
24:00 1015 29.97 844 24.92 -11.8 10.8 90 -13.2 8.3